createdAt,value
2018-03-23T00:00:29.640Z,1004.48
2018-03-23T00:01:29.298Z,1004.48
2018-03-23T00:02:29.252Z,1004.49
2018-03-23T00:03:29.210Z,1004.46
2018-03-23T00:04:29.166Z,1004.47
2018-03-23T00:05:29.126Z,1004.41
2018-03-23T00:06:29.076Z,1004.42
2018-03-23T00:07:29.332Z,1004.47
2018-03-23T00:08:28.988Z,1004.45
2018-03-23T00:09:28.944Z,1004.46
2018-03-23T00:10:28.900Z,1004.50
2018-03-23T00:11:28.856Z,1004.47
2018-03-23T00:12:28.812Z,1004.43
2018-03-23T00:13:29.073Z,1004.46
2018-03-23T00:14:28.726Z,1004.47
2018-03-23T00:15:28.688Z,1004.47
2018-03-23T00:16:28.646Z,1004.46
2018-03-23T00:17:28.594Z,1004.45
2018-03-23T00:18:28.555Z,1004.45
2018-03-23T00:19:29.058Z,1004.41
2018-03-23T00:20:28.461Z,1004.43
2018-03-23T00:21:28.420Z,1004.35
2018-03-23T00:22:28.374Z,1004.36
2018-03-23T00:23:28.333Z,1004.35
2018-03-23T00:24:28.285Z,1004.31
2018-03-23T00:25:28.792Z,1004.35
2018-03-23T00:26:28.203Z,1004.25
2018-03-23T00:27:28.153Z,1004.26
2018-03-23T00:28:28.112Z,1004.29
2018-03-23T00:29:28.067Z,1004.29
2018-03-23T00:30:28.021Z,1004.26
2018-03-23T00:31:28.279Z,1004.27
2018-03-23T00:32:27.934Z,1004.26
2018-03-23T00:33:27.890Z,1004.24
2018-03-23T00:34:27.847Z,1004.25
2018-03-23T00:35:27.809Z,1004.26
2018-03-23T00:36:27.758Z,1004.24
2018-03-23T00:37:28.014Z,1004.21
2018-03-23T00:38:27.669Z,1004.24
2018-03-23T00:39:27.627Z,1004.17
2018-03-23T00:40:27.581Z,1004.19
2018-03-23T00:41:27.537Z,1004.17
2018-03-23T00:42:27.492Z,1004.17
2018-03-23T00:43:27.752Z,1004.20
2018-03-23T00:44:27.408Z,1004.22
2018-03-23T00:45:27.366Z,1004.24
2018-03-23T00:46:27.321Z,1004.20
2018-03-23T00:47:27.281Z,1004.18
2018-03-23T00:48:27.230Z,1004.21
2018-03-23T00:49:27.198Z,1004.17
2018-03-23T00:50:27.442Z,1004.17
2018-03-23T00:51:27.107Z,1004.13
2018-03-23T00:52:27.058Z,1004.14
2018-03-23T00:53:27.013Z,1004.14
2018-03-23T00:54:26.969Z,1004.16
2018-03-23T00:55:26.931Z,1004.13
2018-03-23T00:56:26.881Z,1004.13
2018-03-23T00:57:27.136Z,1004.13
2018-03-23T00:58:26.802Z,1004.11
2018-03-23T00:59:26.762Z,1004.08
2018-03-23T01:00:26.704Z,1004.09
2018-03-23T01:01:26.661Z,1004.12
2018-03-23T01:02:26.630Z,1004.09
2018-03-23T01:03:26.575Z,1004.10
2018-03-23T01:04:26.832Z,1004.05
2018-03-23T01:05:26.486Z,1004.08
2018-03-23T01:06:26.481Z,1004.06
2018-03-23T01:07:26.398Z,1004.09
2018-03-23T01:08:26.357Z,1004.08
2018-03-23T01:09:26.315Z,1004.13
2018-03-23T01:10:26.272Z,1004.12
2018-03-23T01:11:26.522Z,1004.13
2018-03-23T01:12:26.229Z,1004.08
2018-03-23T01:13:26.137Z,1004.07
2018-03-23T01:14:26.089Z,1004.08
2018-03-23T01:15:26.048Z,1004.02
2018-03-23T01:16:26.013Z,1004.05
2018-03-23T01:17:25.960Z,1004.01
2018-03-23T01:18:26.313Z,1004.01
2018-03-23T01:19:25.873Z,1004.01
2018-03-23T01:20:25.834Z,1003.98
2018-03-23T01:21:25.788Z,1003.97
2018-03-23T01:22:25.745Z,1003.98
2018-03-23T01:23:25.697Z,1003.94
2018-03-23T01:24:25.653Z,1003.94
2018-03-23T01:25:25.909Z,1003.95
2018-03-23T01:26:25.566Z,1003.97
2018-03-23T01:27:25.522Z,1003.92
2018-03-23T01:28:25.477Z,1003.95
2018-03-23T01:29:25.436Z,1003.93
2018-03-23T01:30:25.391Z,1003.84
2018-03-23T01:31:25.645Z,1003.92
2018-03-23T01:32:25.300Z,1003.90
2018-03-23T01:33:25.265Z,1003.88
2018-03-23T01:34:25.214Z,1003.86
2018-03-23T01:35:25.181Z,1003.85
2018-03-23T01:36:25.133Z,1003.83
2018-03-23T01:37:25.388Z,1003.83
2018-03-23T01:38:25.037Z,1003.74
2018-03-23T01:39:24.994Z,1003.73
2018-03-23T01:40:24.949Z,1003.73
2018-03-23T01:41:24.904Z,1003.69
2018-03-23T01:42:24.866Z,1003.66
2018-03-23T01:43:25.118Z,1003.71
2018-03-23T01:44:24.824Z,1003.65
2018-03-23T01:45:24.729Z,1003.64
2018-03-23T01:46:24.686Z,1003.69
2018-03-23T01:47:24.639Z,1003.66
2018-03-23T01:48:24.598Z,1003.63
2018-03-23T01:49:24.853Z,1003.65
2018-03-23T01:50:24.510Z,1003.67
2018-03-23T01:51:24.464Z,1003.60
2018-03-23T01:52:24.421Z,1003.65
2018-03-23T01:53:24.380Z,1003.61
2018-03-23T01:54:24.330Z,1003.62
2018-03-23T01:55:24.596Z,1003.66
2018-03-23T01:56:24.298Z,1003.65
2018-03-23T01:57:24.198Z,1003.65
2018-03-23T01:58:24.158Z,1003.64
2018-03-23T01:59:24.111Z,1003.59
2018-03-23T02:00:24.066Z,1003.60
2018-03-23T02:01:24.022Z,1003.66
2018-03-23T02:02:24.281Z,1003.61
2018-03-23T02:03:23.938Z,1003.61
2018-03-23T02:04:23.891Z,1003.59
2018-03-23T02:05:23.846Z,1003.58
2018-03-23T02:06:23.803Z,1003.57
2018-03-23T02:07:23.757Z,1003.54
2018-03-23T02:08:23.712Z,1003.54
2018-03-23T02:09:23.971Z,1003.54
2018-03-23T02:10:23.675Z,1003.51
2018-03-23T02:11:23.583Z,1003.49
2018-03-23T02:12:23.536Z,1003.48
2018-03-23T02:13:23.491Z,1003.52
2018-03-23T02:14:23.447Z,1003.45
2018-03-23T02:15:23.403Z,1003.44
2018-03-23T02:16:23.660Z,1003.38
2018-03-23T02:17:23.317Z,1003.38
2018-03-23T02:18:23.275Z,1003.42
2018-03-23T02:19:23.328Z,1003.40
2018-03-23T02:20:23.182Z,1003.41
2018-03-23T02:21:23.141Z,1003.43
2018-03-23T02:22:23.094Z,1003.40
2018-03-23T02:23:23.454Z,1003.39
2018-03-23T02:24:23.007Z,1003.42
2018-03-23T02:25:22.968Z,1003.37
2018-03-23T02:26:22.917Z,1003.42
2018-03-23T02:27:22.875Z,1003.38
2018-03-23T02:28:22.831Z,1003.39
2018-03-23T02:29:22.794Z,1003.42
2018-03-23T02:30:23.048Z,1003.38
2018-03-23T02:31:22.697Z,1003.42
2018-03-23T02:32:22.657Z,1003.39
2018-03-23T02:33:22.608Z,1003.36
2018-03-23T02:34:22.564Z,1003.40
2018-03-23T02:35:22.520Z,1003.40
2018-03-23T02:36:22.774Z,1003.37
2018-03-23T02:37:22.431Z,1003.35
2018-03-23T02:38:22.387Z,1003.32
2018-03-23T02:39:22.398Z,1003.25
2018-03-23T02:40:22.351Z,1003.22
2018-03-23T02:41:22.262Z,1003.26
2018-03-23T02:42:22.510Z,1003.26
2018-03-23T02:43:22.169Z,1003.25
2018-03-23T02:44:22.122Z,1003.29
2018-03-23T02:45:22.278Z,1003.26
2018-03-23T02:46:22.040Z,1003.26
2018-03-23T02:47:21.990Z,1003.22
2018-03-23T02:48:22.244Z,1003.19
2018-03-23T02:49:21.906Z,1003.21
2018-03-23T02:50:21.871Z,1003.21
2018-03-23T02:51:22.022Z,1003.19
2018-03-23T02:52:21.776Z,1003.18
2018-03-23T02:53:21.730Z,1003.13
2018-03-23T02:54:21.993Z,1003.17
2018-03-23T02:55:21.643Z,1003.19
2018-03-23T02:56:21.650Z,1003.18
2018-03-23T02:57:21.565Z,1003.18
2018-03-23T02:58:21.511Z,1003.14
2018-03-23T02:59:21.476Z,1003.17
2018-03-23T03:00:21.737Z,1003.15
2018-03-23T03:01:21.380Z,1003.16
2018-03-23T03:02:21.336Z,1003.12
2018-03-23T03:03:21.298Z,1003.08
2018-03-23T03:04:21.248Z,1003.11
2018-03-23T03:05:21.204Z,1003.09
2018-03-23T03:06:21.459Z,1003.07
2018-03-23T03:07:21.166Z,1003.13
2018-03-23T03:08:21.068Z,1003.05
2018-03-23T03:09:21.024Z,1003.05
2018-03-23T03:10:20.981Z,1003.03
2018-03-23T03:11:20.947Z,1003.04
2018-03-23T03:12:20.900Z,1002.99
2018-03-23T03:13:21.354Z,1003.04
2018-03-23T03:14:20.802Z,1003.00
2018-03-23T03:15:20.763Z,1002.96
2018-03-23T03:16:20.720Z,1002.91
2018-03-23T03:17:20.669Z,1002.94
2018-03-23T03:18:20.631Z,1002.94
2018-03-23T03:19:20.680Z,1002.94
2018-03-23T03:20:20.839Z,1002.97
2018-03-23T03:21:20.492Z,1002.89
2018-03-23T03:22:20.446Z,1002.93
2018-03-23T03:23:20.404Z,1002.90
2018-03-23T03:24:20.364Z,1002.90
2018-03-23T03:25:20.315Z,1002.96
2018-03-23T03:26:20.270Z,1002.96
2018-03-23T03:27:20.525Z,1002.91
2018-03-23T03:28:20.185Z,1002.93
2018-03-23T03:29:20.135Z,1002.93
2018-03-23T03:30:20.093Z,1002.98
2018-03-23T03:31:20.049Z,1002.94
2018-03-23T03:32:20.003Z,1002.92
2018-03-23T03:33:19.960Z,1002.92
2018-03-23T03:34:20.223Z,1002.91
2018-03-23T03:35:19.873Z,1002.88
2018-03-23T03:36:19.836Z,1002.85
2018-03-23T03:37:19.783Z,1002.87
2018-03-23T03:38:19.740Z,1002.90
2018-03-23T03:39:19.695Z,1002.86
2018-03-23T03:40:19.662Z,1002.88
2018-03-23T03:41:19.902Z,1002.81
2018-03-23T03:42:19.565Z,1002.84
2018-03-23T03:43:19.518Z,1002.84
2018-03-23T03:44:19.467Z,1002.86
2018-03-23T03:45:19.424Z,1002.86
2018-03-23T03:46:19.378Z,1002.80
2018-03-23T03:47:19.338Z,1002.85
2018-03-23T03:48:19.600Z,1002.88
2018-03-23T03:49:19.251Z,1002.82
2018-03-23T03:50:19.203Z,1002.85
2018-03-23T03:51:19.163Z,1002.86
2018-03-23T03:52:19.117Z,1002.87
2018-03-23T03:53:19.069Z,1002.83
2018-03-23T03:54:19.323Z,1002.85
2018-03-23T03:55:18.981Z,1002.83
2018-03-23T03:56:18.943Z,1002.79
2018-03-23T03:57:18.892Z,1002.80
2018-03-23T03:58:18.847Z,1002.77
2018-03-23T03:59:18.806Z,1002.75
2018-03-23T04:00:19.060Z,1002.73
2018-03-23T04:01:18.715Z,1002.75
2018-03-23T04:02:18.669Z,1002.69
2018-03-23T04:03:18.629Z,1002.77
2018-03-23T04:04:18.585Z,1002.79
2018-03-23T04:05:18.539Z,1002.77
2018-03-23T04:06:18.799Z,1002.72
2018-03-23T04:07:18.449Z,1002.75
2018-03-23T04:08:18.406Z,1002.77
2018-03-23T04:09:18.362Z,1002.76
2018-03-23T04:10:18.316Z,1002.69
2018-03-23T04:11:18.272Z,1002.74
2018-03-23T04:12:18.527Z,1002.72
2018-03-23T04:13:18.190Z,1002.74
2018-03-23T04:14:18.146Z,1002.76
2018-03-23T04:15:18.097Z,1002.68
2018-03-23T04:16:18.051Z,1002.66
2018-03-23T04:17:18.073Z,1002.71
2018-03-23T04:18:18.263Z,1002.72
2018-03-23T04:19:17.921Z,1002.70
2018-03-23T04:20:17.880Z,1002.69
2018-03-23T04:21:17.832Z,1002.65
2018-03-23T04:22:17.786Z,1002.63
2018-03-23T04:23:17.741Z,1002.69
2018-03-23T04:24:17.701Z,1002.64
2018-03-23T04:25:17.954Z,1002.64
2018-03-23T04:26:17.608Z,1002.62
2018-03-23T04:27:17.566Z,1002.66
2018-03-23T04:28:17.521Z,1002.69
2018-03-23T04:29:17.480Z,1002.64
2018-03-23T04:30:17.433Z,1002.66
2018-03-23T04:31:17.389Z,1002.66
2018-03-23T04:32:17.646Z,1002.66
2018-03-23T04:33:17.301Z,1002.65
2018-03-23T04:34:17.256Z,1002.65
2018-03-23T04:35:17.214Z,1002.68
2018-03-23T04:36:17.166Z,1002.68
2018-03-23T04:37:17.122Z,1002.66
2018-03-23T04:38:17.077Z,1002.59
2018-03-23T04:39:17.334Z,1002.62
2018-03-23T04:40:16.988Z,1002.58
2018-03-23T04:41:16.949Z,1002.61
2018-03-23T04:42:16.899Z,1002.59
2018-03-23T04:43:16.856Z,1002.56
2018-03-23T04:44:16.811Z,1002.54
2018-03-23T04:45:16.768Z,1002.52
2018-03-23T04:46:17.024Z,1002.55
2018-03-23T04:47:16.679Z,1002.49
2018-03-23T04:48:16.633Z,1002.55
2018-03-23T04:49:16.590Z,1002.55
2018-03-23T04:50:16.546Z,1002.52
2018-03-23T04:51:16.512Z,1002.56
2018-03-23T04:52:16.460Z,1002.48
2018-03-23T04:53:16.713Z,1002.49
2018-03-23T04:54:16.368Z,1002.49
2018-03-23T04:55:16.475Z,1002.46
2018-03-23T04:56:16.282Z,1002.45
2018-03-23T04:57:16.240Z,1002.42
2018-03-23T04:58:16.192Z,1002.41
2018-03-23T04:59:16.488Z,1002.46
2018-03-23T05:00:16.107Z,1002.45
2018-03-23T05:01:16.111Z,1002.46
2018-03-23T05:02:16.029Z,1002.42
2018-03-23T05:03:15.973Z,1002.42
2018-03-23T05:04:15.927Z,1002.42
2018-03-23T05:05:16.188Z,1002.42
2018-03-23T05:06:15.840Z,1002.43
2018-03-23T05:07:15.944Z,1002.38
2018-03-23T05:08:15.749Z,1002.35
2018-03-23T05:09:15.712Z,1002.41
2018-03-23T05:10:15.709Z,1002.33
2018-03-23T05:11:15.920Z,1002.34
2018-03-23T05:12:15.580Z,1002.37
2018-03-23T05:13:15.622Z,1002.30
2018-03-23T05:14:15.485Z,1002.33
2018-03-23T05:15:15.444Z,1002.31
2018-03-23T05:16:15.395Z,1002.26
2018-03-23T05:17:15.650Z,1002.24
2018-03-23T05:18:15.308Z,1002.27
2018-03-23T05:19:15.262Z,1002.23
2018-03-23T05:20:15.219Z,1002.21
2018-03-23T05:21:15.177Z,1002.20
2018-03-23T05:22:15.127Z,1002.19
2018-03-23T05:23:15.393Z,1002.22
2018-03-23T05:24:15.040Z,1002.22
2018-03-23T05:25:14.998Z,1002.20
2018-03-23T05:26:14.955Z,1002.21
2018-03-23T05:27:14.915Z,1002.21
2018-03-23T05:28:14.866Z,1002.18
2018-03-23T05:29:15.120Z,1002.15
2018-03-23T05:30:14.775Z,1002.05
2018-03-23T05:31:14.733Z,1002.12
2018-03-23T05:32:14.690Z,1002.07
2018-03-23T05:33:14.645Z,1002.14
2018-03-23T05:34:14.599Z,1002.12
2018-03-23T05:35:14.556Z,1002.08
2018-03-23T05:36:14.816Z,1002.14
2018-03-23T05:37:14.467Z,1002.11
2018-03-23T05:38:14.422Z,1002.15
2018-03-23T05:39:14.376Z,1002.14
2018-03-23T05:40:14.333Z,1002.09
2018-03-23T05:41:14.357Z,1002.13
2018-03-23T05:42:14.244Z,1002.17
2018-03-23T05:43:14.504Z,1002.14
2018-03-23T05:44:14.155Z,1002.10
2018-03-23T05:45:14.115Z,1002.14
2018-03-23T05:46:14.079Z,1002.10
2018-03-23T05:47:14.032Z,1002.12
2018-03-23T05:48:13.983Z,1002.08
2018-03-23T05:49:13.986Z,1002.07
2018-03-23T05:50:14.197Z,1002.04
2018-03-23T05:51:13.849Z,1002.02
2018-03-23T05:52:13.854Z,1002.05
2018-03-23T05:53:13.765Z,1002.02
2018-03-23T05:54:13.713Z,1002.05
2018-03-23T05:55:13.668Z,1002.07
2018-03-23T05:56:13.627Z,1002.05
2018-03-23T05:57:13.884Z,1002.06
2018-03-23T05:58:13.589Z,1002.00
2018-03-23T05:59:13.497Z,1002.04
2018-03-23T06:00:13.448Z,1002.06
2018-03-23T06:01:13.405Z,1002.02
2018-03-23T06:02:13.360Z,1002.01
2018-03-23T06:03:13.316Z,1002.02
2018-03-23T06:04:13.621Z,1001.96
2018-03-23T06:05:13.230Z,1001.98
2018-03-23T06:06:13.187Z,1001.99
2018-03-23T06:07:13.140Z,1001.96
2018-03-23T06:08:13.096Z,1001.99
2018-03-23T06:09:13.054Z,1001.96
2018-03-23T06:10:13.014Z,1001.98
2018-03-23T06:11:13.263Z,1001.92
2018-03-23T06:12:12.920Z,1001.93
2018-03-23T06:13:12.878Z,1001.92
2018-03-23T06:14:12.833Z,1001.94
2018-03-23T06:15:12.844Z,1001.95
2018-03-23T06:16:12.744Z,1001.90
2018-03-23T06:17:13.001Z,1001.86
2018-03-23T06:18:12.655Z,1001.85
2018-03-23T06:19:12.611Z,1001.82
2018-03-23T06:20:12.571Z,1001.85
2018-03-23T06:21:12.529Z,1001.91
2018-03-23T06:22:12.482Z,1001.92
2018-03-23T06:23:12.734Z,1001.91
2018-03-23T06:24:12.392Z,1001.90
2018-03-23T06:25:12.357Z,1001.91
2018-03-23T06:26:12.303Z,1001.87
2018-03-23T06:27:12.259Z,1001.87
2018-03-23T06:28:12.226Z,1001.89
2018-03-23T06:29:12.471Z,1001.86
2018-03-23T06:30:12.128Z,1001.84
2018-03-23T06:31:12.089Z,1001.81
2018-03-23T06:32:12.039Z,1001.79
2018-03-23T06:33:12.004Z,1001.75
2018-03-23T06:34:11.959Z,1001.78
2018-03-23T06:35:12.238Z,1001.79
2018-03-23T06:36:12.011Z,1001.81
2018-03-23T06:37:11.819Z,1001.73
2018-03-23T06:38:11.774Z,1001.68
2018-03-23T06:39:11.740Z,1001.72
2018-03-23T06:40:11.686Z,1001.71
2018-03-23T06:41:11.644Z,1001.63
2018-03-23T06:42:11.647Z,1001.61
2018-03-23T06:43:11.553Z,1001.57
2018-03-23T06:44:11.511Z,1001.66
2018-03-23T06:45:11.466Z,1001.72
2018-03-23T06:46:11.423Z,1001.72
2018-03-23T06:47:11.715Z,1001.69
2018-03-23T06:48:11.334Z,1001.74
2018-03-23T06:49:11.291Z,1001.67
2018-03-23T06:50:11.244Z,1001.71
2018-03-23T06:51:11.204Z,1001.75
2018-03-23T06:52:11.162Z,1001.73
2018-03-23T06:53:11.335Z,1001.73
2018-03-23T06:54:11.379Z,1001.69
2018-03-23T06:55:11.034Z,1001.75
2018-03-23T06:56:10.981Z,1001.72
2018-03-23T06:57:10.941Z,1001.69
2018-03-23T06:58:10.893Z,1001.73
2018-03-23T06:59:10.900Z,1001.76
2018-03-23T07:00:10.805Z,1001.75
2018-03-23T07:01:10.811Z,1001.76
2018-03-23T07:02:10.717Z,1001.79
2018-03-23T07:03:10.724Z,1001.73
2018-03-23T07:04:10.648Z,1001.74
2018-03-23T07:05:10.588Z,1001.78
2018-03-23T07:06:10.541Z,1001.77
2018-03-23T07:07:10.500Z,1001.74
2018-03-23T07:08:10.457Z,1001.76
2018-03-23T07:09:10.565Z,1001.75
2018-03-23T07:10:10.366Z,1001.75
2018-03-23T07:11:10.526Z,1001.75
2018-03-23T07:12:10.279Z,1001.74
2018-03-23T07:13:10.539Z,1001.72
2018-03-23T07:14:10.191Z,1001.74
2018-03-23T07:15:10.147Z,1001.75
2018-03-23T07:16:10.107Z,1001.79
2018-03-23T07:17:10.060Z,1001.85
2018-03-23T07:18:10.062Z,1001.82
2018-03-23T07:19:09.969Z,1001.81
2018-03-23T07:20:09.981Z,1001.79
2018-03-23T07:21:09.932Z,1001.82
2018-03-23T07:22:09.850Z,1001.77
2018-03-23T07:23:10.105Z,1001.76
2018-03-23T07:24:09.959Z,1001.83
2018-03-23T07:25:09.705Z,1001.79
2018-03-23T07:26:09.662Z,1001.78
2018-03-23T07:27:09.666Z,1001.80
2018-03-23T07:28:09.631Z,1001.77
2018-03-23T07:29:09.734Z,1001.69
2018-03-23T07:30:09.484Z,1001.72
2018-03-23T07:31:09.440Z,1001.74
2018-03-23T07:32:09.447Z,1001.74
2018-03-23T07:33:09.405Z,1001.69
2018-03-23T07:34:09.511Z,1001.67
2018-03-23T07:35:09.268Z,1001.65
2018-03-23T07:36:09.272Z,1001.63
2018-03-23T07:37:09.179Z,1001.63
2018-03-23T07:38:09.432Z,1001.64
2018-03-23T07:39:09.089Z,1001.60
2018-03-23T07:40:09.046Z,1001.60
2018-03-23T07:41:09.053Z,1001.60
2018-03-23T07:42:08.964Z,1001.57
2018-03-23T07:43:08.966Z,1001.56
2018-03-23T07:44:09.220Z,1001.55
2018-03-23T07:45:08.830Z,1001.50
2018-03-23T07:46:08.782Z,1001.55
2018-03-23T07:47:08.739Z,1001.57
2018-03-23T07:48:08.753Z,1001.54
2018-03-23T07:49:08.705Z,1001.53
2018-03-23T07:50:08.906Z,1001.55
2018-03-23T07:51:09.265Z,1001.54
2018-03-23T07:52:08.521Z,1001.57
2018-03-23T07:53:08.525Z,1001.54
2018-03-23T07:54:08.582Z,1001.52
2018-03-23T07:55:08.389Z,1001.55
2018-03-23T07:56:08.395Z,1001.53
2018-03-23T07:57:08.602Z,1001.56
2018-03-23T07:58:08.306Z,1001.55
2018-03-23T07:59:08.411Z,1001.56
2018-03-23T08:00:08.177Z,1001.54
2018-03-23T08:01:08.279Z,1001.56
2018-03-23T08:02:08.081Z,1001.55
2018-03-23T08:03:08.237Z,1001.56
2018-03-23T08:04:08.293Z,1001.57
2018-03-23T08:05:07.949Z,1001.55
2018-03-23T08:06:08.057Z,1001.55
2018-03-23T08:07:07.865Z,1001.54
2018-03-23T08:08:08.021Z,1001.55
2018-03-23T08:09:07.973Z,1001.53
2018-03-23T08:10:07.728Z,1001.50
2018-03-23T08:11:08.190Z,1001.47
2018-03-23T08:12:07.640Z,1001.49
2018-03-23T08:13:07.681Z,1001.54
2018-03-23T08:14:07.707Z,1001.56
2018-03-23T08:15:07.509Z,1001.52
2018-03-23T08:16:07.719Z,1001.52
2018-03-23T08:17:07.476Z,1001.47
2018-03-23T08:18:07.938Z,1001.51
2018-03-23T08:19:07.383Z,1001.52
2018-03-23T08:20:07.294Z,1001.50
2018-03-23T08:21:07.452Z,1001.50
2018-03-23T08:22:07.259Z,1001.52
2018-03-23T08:23:07.309Z,1001.54
2018-03-23T08:24:07.267Z,1001.48
2018-03-23T08:25:07.377Z,1001.47
2018-03-23T08:26:07.076Z,1001.45
2018-03-23T08:27:07.032Z,1001.43
2018-03-23T08:28:07.090Z,1001.37
2018-03-23T08:29:07.194Z,1001.41
2018-03-23T08:30:06.860Z,1001.42
2018-03-23T08:31:06.936Z,1001.41
2018-03-23T08:32:07.114Z,1001.43
2018-03-23T08:33:06.775Z,1001.45
2018-03-23T08:34:06.724Z,1001.43
2018-03-23T08:35:06.643Z,1001.42
2018-03-23T08:36:06.740Z,1001.39
2018-03-23T08:37:06.693Z,1001.44
2018-03-23T08:38:06.960Z,1001.43
2018-03-23T08:39:06.504Z,1001.41
2018-03-23T08:40:06.411Z,1001.44
2018-03-23T08:41:06.518Z,1001.43
2018-03-23T08:42:06.372Z,1001.40
2018-03-23T08:43:06.481Z,1001.39
2018-03-23T08:44:06.579Z,1001.38
2018-03-23T08:45:06.195Z,1001.38
2018-03-23T08:46:06.355Z,1001.37
2018-03-23T08:47:06.156Z,1001.37
2018-03-23T08:48:06.321Z,1001.34
2018-03-23T08:49:06.220Z,1001.38
2018-03-23T08:50:06.299Z,1001.32
2018-03-23T08:51:05.989Z,1001.32
2018-03-23T08:52:06.127Z,1001.31
2018-03-23T08:53:05.992Z,1001.30
2018-03-23T08:54:05.946Z,1001.23
2018-03-23T08:55:05.756Z,1001.29
2018-03-23T08:56:06.062Z,1001.29
2018-03-23T08:57:05.867Z,1001.25
2018-03-23T08:58:05.679Z,1001.25
2018-03-23T08:59:05.630Z,1001.23
2018-03-23T09:00:05.539Z,1001.24
2018-03-23T09:01:05.592Z,1001.21
2018-03-23T09:02:05.649Z,1001.22
2018-03-23T09:03:05.454Z,1001.22
2018-03-23T09:04:05.416Z,1001.26
2018-03-23T09:05:05.324Z,1001.25
2018-03-23T09:06:05.381Z,1001.22
2018-03-23T09:07:05.333Z,1001.22
2018-03-23T09:08:05.488Z,1001.27
2018-03-23T09:09:05.199Z,1001.27
2018-03-23T09:10:05.103Z,1001.26
2018-03-23T09:11:05.207Z,1001.24
2018-03-23T09:12:05.213Z,1001.26
2018-03-23T09:13:05.120Z,1001.23
2018-03-23T09:14:04.977Z,1001.26
2018-03-23T09:15:05.196Z,1001.21
2018-03-23T09:16:04.891Z,1001.20
2018-03-23T09:17:04.849Z,1001.20
2018-03-23T09:18:04.854Z,1001.20
2018-03-23T09:19:04.761Z,1001.21
2018-03-23T09:20:04.667Z,1001.18
2018-03-23T09:21:04.672Z,1001.19
2018-03-23T09:22:04.885Z,1001.18
2018-03-23T09:23:04.536Z,1001.19
2018-03-23T09:24:04.541Z,1001.16
2018-03-23T09:25:04.455Z,1001.21
2018-03-23T09:26:04.520Z,1001.13
2018-03-23T09:27:04.413Z,1001.17
2018-03-23T09:28:04.373Z,1001.15
2018-03-23T09:29:04.629Z,1001.07
2018-03-23T09:30:04.233Z,1001.07
2018-03-23T09:31:04.387Z,1001.10
2018-03-23T09:32:04.396Z,1001.09
2018-03-23T09:33:04.152Z,1001.08
2018-03-23T09:34:04.209Z,1001.05
2018-03-23T09:35:04.018Z,1001.01
2018-03-23T09:36:04.272Z,1001.00
2018-03-23T09:37:03.981Z,1001.03
2018-03-23T09:38:03.911Z,1001.03
2018-03-23T09:39:04.050Z,1001.00
2018-03-23T09:40:03.801Z,1000.97
2018-03-23T09:41:03.808Z,1000.97
2018-03-23T09:42:03.867Z,1000.98
2018-03-23T09:43:03.974Z,1000.94
2018-03-23T09:44:03.759Z,1000.95
2018-03-23T09:45:03.589Z,1000.94
2018-03-23T09:46:03.599Z,1000.92
2018-03-23T09:47:03.552Z,1000.85
2018-03-23T09:48:03.509Z,1000.89
2018-03-23T09:49:03.722Z,1000.87
2018-03-23T09:50:03.377Z,1000.83
2018-03-23T09:51:03.382Z,1000.84
2018-03-23T09:52:03.341Z,1000.80
2018-03-23T09:53:03.447Z,1000.83
2018-03-23T09:54:03.256Z,1000.80
2018-03-23T09:55:03.468Z,1000.81
2018-03-23T09:56:03.173Z,1000.80
2018-03-23T09:57:03.279Z,1000.76
2018-03-23T09:58:03.085Z,1000.80
2018-03-23T09:59:03.045Z,1000.80
2018-03-23T10:00:02.952Z,1000.74
2018-03-23T10:01:03.261Z,1000.77
2018-03-23T10:02:02.919Z,1000.73
2018-03-23T10:03:02.877Z,1000.73
2018-03-23T10:04:02.948Z,1000.70
2018-03-23T10:05:02.742Z,1000.69
2018-03-23T10:06:02.757Z,1000.63
2018-03-23T10:07:02.808Z,1000.69
2018-03-23T10:08:02.619Z,1000.68
2018-03-23T10:09:02.775Z,1000.62
2018-03-23T10:10:02.532Z,1000.60
2018-03-23T10:11:02.545Z,1000.62
2018-03-23T10:12:02.498Z,1000.60
2018-03-23T10:13:02.707Z,1000.62
2018-03-23T10:14:02.414Z,1000.61
2018-03-23T10:15:02.319Z,1000.59
2018-03-23T10:16:02.327Z,1000.61
2018-03-23T10:17:02.537Z,1000.55
2018-03-23T10:18:02.218Z,1000.54
2018-03-23T10:19:02.202Z,1000.55
2018-03-23T10:20:02.109Z,1000.55
2018-03-23T10:21:02.115Z,1000.54
2018-03-23T10:22:02.076Z,1000.53
2018-03-23T10:23:01.980Z,1000.57
2018-03-23T10:24:01.993Z,1000.51
2018-03-23T10:25:01.897Z,1000.53
2018-03-23T10:26:02.152Z,1000.51
2018-03-23T10:27:01.860Z,1000.52
2018-03-23T10:28:01.826Z,1000.54
2018-03-23T10:29:01.873Z,1000.58
2018-03-23T10:30:01.687Z,1000.50
2018-03-23T10:31:01.898Z,1000.46
2018-03-23T10:32:01.652Z,1000.51
2018-03-23T10:33:01.856Z,1000.42
2018-03-23T10:34:01.764Z,1000.47
2018-03-23T10:35:01.474Z,1000.48
2018-03-23T10:36:01.585Z,1000.41
2018-03-23T10:37:01.536Z,1000.46
2018-03-23T10:38:01.341Z,1000.42
2018-03-23T10:39:01.357Z,1000.37
2018-03-23T10:40:01.312Z,1000.39
2018-03-23T10:41:01.420Z,1000.37
2018-03-23T10:42:01.220Z,1000.29
2018-03-23T10:43:01.129Z,1000.33
2018-03-23T10:44:01.135Z,1000.26
2018-03-23T10:45:01.094Z,1000.31
2018-03-23T10:46:01.300Z,1000.26
2018-03-23T10:47:01.158Z,1000.26
2018-03-23T10:48:00.925Z,1000.23
2018-03-23T10:49:01.026Z,1000.23
2018-03-23T10:50:00.880Z,1000.26
2018-03-23T10:51:00.848Z,1000.22
2018-03-23T10:52:00.793Z,1000.28
2018-03-23T10:53:01.011Z,1000.25
2018-03-23T10:54:00.713Z,1000.24
2018-03-23T10:55:00.666Z,1000.24
2018-03-23T10:56:00.677Z,1000.25
2018-03-23T10:57:00.681Z,1000.24
2018-03-23T10:58:00.488Z,1000.22
2018-03-23T10:59:00.645Z,1000.27
2018-03-23T11:00:00.657Z,1000.24
2018-03-23T11:01:00.410Z,1000.26
2018-03-23T11:02:00.469Z,1000.21
2018-03-23T11:03:00.276Z,1000.17
2018-03-23T11:04:00.437Z,1000.18
2018-03-23T11:05:00.594Z,1000.18
2018-03-23T11:06:00.250Z,1000.18
2018-03-23T11:07:00.162Z,1000.13
2018-03-23T11:08:00.070Z,1000.15
2018-03-23T11:09:00.175Z,1000.15
2018-03-23T11:10:00.182Z,1000.12
2018-03-23T11:10:59.987Z,1000.11
2018-03-23T11:11:59.946Z,1000.13
2018-03-23T11:12:59.851Z,1000.13
2018-03-23T11:13:59.863Z,1000.10
2018-03-23T11:14:59.817Z,1000.15
2018-03-23T11:15:59.883Z,1000.14
2018-03-23T11:16:59.842Z,1000.13
2018-03-23T11:17:59.641Z,1000.10
2018-03-23T11:18:59.657Z,1000.08
2018-03-23T11:19:59.755Z,1000.10
2018-03-23T11:20:59.662Z,1000.07
2018-03-23T11:21:59.784Z,1000.06
2018-03-23T11:22:59.728Z,1000.05
2018-03-23T11:23:59.534Z,1000.05
2018-03-23T11:24:59.599Z,1000.11
2018-03-23T11:25:59.455Z,1000.00
2018-03-23T11:26:59.456Z,1000.04
2018-03-23T11:27:59.224Z,1000.01
2018-03-23T11:28:59.222Z,999.96
2018-03-23T11:29:59.180Z,999.99
2018-03-23T11:30:59.136Z,999.97
2018-03-23T11:31:59.242Z,1000.01
2018-03-23T11:32:59.004Z,999.99
2018-03-23T11:33:59.029Z,999.99
2018-03-23T11:34:59.264Z,999.95
2018-03-23T11:35:59.176Z,999.92
2018-03-23T11:36:59.135Z,999.89
2018-03-23T11:37:58.789Z,999.97
2018-03-23T11:38:58.800Z,999.92
2018-03-23T11:39:58.902Z,999.94
2018-03-23T11:40:58.722Z,999.97
2018-03-23T11:41:59.076Z,999.93
2018-03-23T11:42:58.585Z,999.99
2018-03-23T11:43:58.743Z,999.95
2018-03-23T11:44:58.547Z,999.96
2018-03-23T11:45:58.648Z,999.88
2018-03-23T11:46:58.463Z,999.95
2018-03-23T11:47:58.364Z,999.91
2018-03-23T11:48:58.622Z,999.98
2018-03-23T11:49:58.433Z,999.95
2018-03-23T11:50:58.340Z,999.90
2018-03-23T11:51:59.002Z,999.90
2018-03-23T11:52:58.155Z,999.93
2018-03-23T11:53:58.163Z,999.92
2018-03-23T11:54:58.219Z,999.87
2018-03-23T11:55:58.328Z,999.89
2018-03-23T11:56:58.036Z,999.86
2018-03-23T11:57:57.944Z,999.81
2018-03-23T11:58:57.953Z,999.75
2018-03-23T11:59:57.955Z,999.73
2018-03-23T12:00:57.819Z,999.75
2018-03-23T12:01:57.835Z,999.73
2018-03-23T12:02:58.037Z,999.75
2018-03-23T12:03:57.910Z,999.71
2018-03-23T12:04:57.704Z,999.66
2018-03-23T12:05:57.612Z,999.64